createdAt,value
2018-10-21T00:01:05.146Z,42.33
2018-10-21T00:03:35.079Z,35.58
2018-10-21T00:06:04.856Z,39.13
2018-10-21T00:08:34.531Z,41.35
2018-10-21T00:11:04.246Z,37.07
2018-10-21T00:13:33.923Z,37.05
2018-10-21T00:16:03.810Z,39.88
2018-10-21T00:18:33.459Z,40.33
2018-10-21T00:21:03.238Z,39.50
2018-10-21T00:23:32.843Z,39.15
2018-10-21T00:26:02.598Z,38.75
2018-10-21T00:28:32.349Z,36.83
2018-10-21T00:31:02.055Z,37.33
2018-10-21T00:33:31.726Z,38.83
2018-10-21T00:36:08.113Z,42.20
2018-10-21T00:38:37.817Z,39.20
2018-10-21T00:41:07.538Z,37.42
2018-10-21T00:43:37.175Z,39.95
2018-10-21T00:46:07.122Z,39.67
2018-10-21T00:48:36.883Z,41.40
2018-10-21T00:51:06.702Z,44.30
2018-10-21T00:53:36.333Z,40.45
2018-10-21T00:56:06.199Z,42.70
2018-10-21T00:58:36.089Z,39.08
2018-10-21T01:01:05.964Z,38.20
2018-10-21T01:03:35.693Z,38.00
2018-10-21T01:06:05.515Z,39.23
2018-10-21T01:08:35.266Z,35.10
2018-10-21T01:11:05.462Z,40.37
2018-10-21T01:13:35.306Z,41.28
2018-10-21T01:16:05.337Z,38.38
2018-10-21T01:18:35.060Z,37.28
2018-10-21T01:21:05.232Z,39.58
2018-10-21T01:23:34.968Z,35.83
2018-10-21T01:26:05.051Z,38.53
2018-10-21T01:28:34.748Z,38.40
2018-10-21T01:31:04.607Z,36.60
2018-10-21T01:33:34.311Z,35.40
2018-10-21T01:36:04.029Z,35.63
2018-10-21T01:38:33.730Z,40.75
2018-10-21T01:41:03.466Z,37.17
2018-10-21T01:43:33.915Z,40.05
2018-10-21T01:46:04.583Z,38.15
2018-10-21T01:48:34.331Z,34.73
2018-10-21T01:51:04.128Z,39.50
2018-10-21T01:53:33.934Z,37.70
2018-10-21T01:56:03.829Z,43.33
2018-10-21T01:58:33.660Z,38.30
2018-10-21T02:01:03.353Z,40.12
2018-10-21T02:03:33.105Z,37.83
2018-10-21T02:06:02.845Z,38.90
2018-10-21T02:08:32.596Z,42.43
2018-10-21T02:11:03.019Z,39.73
2018-10-21T02:13:32.712Z,42.73
2018-10-21T02:16:02.393Z,39.73
2018-10-21T02:18:32.171Z,40.45
2018-10-21T02:21:01.856Z,40.88
2018-10-21T02:23:31.530Z,39.70
2018-10-21T02:26:01.253Z,37.93
2018-10-21T02:28:30.949Z,43.00
2018-10-21T02:31:00.673Z,43.23
2018-10-21T02:33:30.522Z,40.55
2018-10-21T02:36:00.103Z,39.10
2018-10-21T02:38:29.843Z,41.85
2018-10-21T02:42:19.530Z,41.10
2018-10-21T02:44:49.223Z,40.23
2018-10-21T02:47:19.032Z,40.63
2018-10-21T02:49:48.735Z,42.33
2018-10-21T02:52:18.427Z,48.30
2018-10-21T02:54:48.131Z,42.83
2018-10-21T02:57:20.534Z,47.93
2018-10-21T02:59:50.153Z,46.33
2018-10-21T03:02:19.845Z,42.13
2018-10-21T03:04:49.565Z,52.93
2018-10-21T03:07:19.297Z,44.60
2018-10-21T03:09:48.975Z,47.00
2018-10-21T03:12:18.735Z,46.13
2018-10-21T03:14:48.421Z,43.48
2018-10-21T03:17:18.132Z,41.50
2018-10-21T03:19:47.846Z,43.60
2018-10-21T03:22:17.533Z,47.70
2018-10-21T03:24:47.313Z,44.23
2018-10-21T03:27:17.049Z,42.53
2018-10-21T03:29:46.823Z,44.77
2018-10-21T03:32:16.491Z,44.88
2018-10-21T03:34:46.210Z,42.83
2018-10-21T03:37:15.960Z,44.08
2018-10-21T03:39:45.650Z,45.20
2018-10-21T03:42:15.398Z,43.05
2018-10-21T03:44:45.111Z,40.98
2018-10-21T03:47:14.802Z,41.80
2018-10-21T03:49:44.543Z,41.98
2018-10-21T03:52:14.224Z,51.95
2018-10-21T03:54:47.422Z,41.70
2018-10-21T03:57:17.174Z,42.05
2018-10-21T03:59:46.870Z,43.15
2018-10-21T04:02:16.558Z,38.73
2018-10-21T04:04:46.248Z,45.83
2018-10-21T04:07:15.966Z,40.25
2018-10-21T04:09:45.665Z,39.63
2018-10-21T04:12:15.396Z,41.40
2018-10-21T04:14:45.193Z,38.80
2018-10-21T04:17:14.889Z,39.38
2018-10-21T04:19:44.578Z,38.02
2018-10-21T04:22:14.269Z,40.60
2018-10-21T04:24:43.946Z,40.20
2018-10-21T04:27:13.679Z,41.42
2018-10-21T04:29:43.385Z,41.05
2018-10-21T04:32:13.099Z,40.23
2018-10-21T04:34:42.815Z,41.48
2018-10-21T04:38:28.746Z,39.20
2018-10-21T04:40:58.553Z,36.83
2018-10-21T04:43:28.251Z,37.87
2018-10-21T04:45:58.004Z,40.08
2018-10-21T04:48:27.686Z,36.75
2018-10-21T04:50:57.378Z,38.60
2018-10-21T04:53:27.100Z,40.80
2018-10-21T04:55:56.766Z,38.23
2018-10-21T04:58:26.613Z,35.48
2018-10-21T05:00:56.282Z,35.38
2018-10-21T05:03:25.993Z,35.60
2018-10-21T05:05:55.666Z,36.77
2018-10-21T05:08:25.435Z,38.88
2018-10-21T05:10:55.172Z,38.97
2018-10-21T05:13:24.852Z,41.70
2018-10-21T05:15:54.560Z,37.30
2018-10-21T05:18:24.234Z,38.13
2018-10-21T05:20:53.954Z,39.23
2018-10-21T05:23:23.710Z,37.95
2018-10-21T05:25:53.438Z,35.20
2018-10-21T05:28:23.122Z,37.30
2018-10-21T05:30:52.830Z,40.38
2018-10-21T05:33:22.515Z,39.25
2018-10-21T05:35:52.247Z,37.67
2018-10-21T05:38:21.922Z,41.55
2018-10-21T05:40:51.627Z,37.10
2018-10-21T05:43:21.354Z,31.33
2018-10-21T05:45:51.025Z,38.10
2018-10-21T05:48:20.754Z,35.43
2018-10-21T05:50:50.461Z,36.85
2018-10-21T05:53:20.243Z,37.60
2018-10-21T05:55:49.971Z,44.37
2018-10-21T05:58:19.695Z,33.78
2018-10-21T06:00:49.371Z,34.85
2018-10-21T06:03:19.083Z,36.50
2018-10-21T06:05:49.418Z,35.35
2018-10-21T06:08:19.123Z,36.40
2018-10-21T06:10:48.836Z,36.93
2018-10-21T06:13:18.523Z,33.80
2018-10-21T06:15:48.564Z,39.80
2018-10-21T06:18:22.473Z,36.10
2018-10-21T06:20:54.239Z,42.58
2018-10-21T06:23:23.917Z,56.23
2018-10-21T06:25:53.761Z,43.17
2018-10-21T06:28:23.645Z,38.55
2018-10-21T06:30:53.369Z,36.93
2018-10-21T06:33:23.075Z,37.23
2018-10-21T06:35:52.781Z,37.23
2018-10-21T06:38:22.513Z,38.63
2018-10-21T06:40:52.263Z,33.30
2018-10-21T06:43:22.013Z,33.20
2018-10-21T06:45:51.751Z,33.67
2018-10-21T06:48:21.484Z,34.38
2018-10-21T06:50:51.433Z,38.20
2018-10-21T06:53:21.165Z,36.48
2018-10-21T06:55:50.893Z,33.77
2018-10-21T06:58:20.731Z,31.93
2018-10-21T07:00:50.468Z,34.88
2018-10-21T07:03:20.242Z,30.82
2018-10-21T07:06:23.962Z,37.55
2018-10-21T07:08:54.935Z,34.80
2018-10-21T07:11:24.677Z,31.00
2018-10-21T07:13:54.715Z,30.53
2018-10-21T07:16:24.595Z,28.90
2018-10-21T07:18:54.408Z,31.20
2018-10-21T07:21:24.094Z,33.93
2018-10-21T07:23:53.932Z,30.50
2018-10-21T07:26:23.624Z,30.57
2018-10-21T07:28:53.484Z,28.80
2018-10-21T07:31:23.261Z,32.93
2018-10-21T07:33:52.952Z,27.90
2018-10-21T07:36:22.755Z,29.40
2018-10-21T07:38:52.406Z,32.17
2018-10-21T07:41:22.134Z,27.50
2018-10-21T07:43:51.860Z,28.93
2018-10-21T07:46:21.630Z,26.60
2018-10-21T07:48:51.375Z,28.43
2018-10-21T07:51:21.133Z,24.32
2018-10-21T07:53:51.224Z,21.93
2018-10-21T07:56:20.962Z,21.83
2018-10-21T07:58:50.671Z,23.77
2018-10-21T08:01:20.524Z,23.17
2018-10-21T08:03:50.302Z,24.20
2018-10-21T08:06:34.030Z,20.40
2018-10-21T08:09:05.688Z,20.70
2018-10-21T08:11:35.582Z,24.60
2018-10-21T08:14:05.582Z,26.27
2018-10-21T08:16:35.500Z,24.43
2018-10-21T08:19:05.807Z,26.77
2018-10-21T08:21:35.600Z,22.73
2018-10-21T08:24:05.708Z,25.00
2018-10-21T08:26:35.558Z,22.43
2018-10-21T08:29:05.584Z,25.10
2018-10-21T08:31:35.372Z,23.30
2018-10-21T08:34:05.429Z,23.60
2018-10-21T08:36:35.216Z,24.07
2018-10-21T08:39:06.763Z,22.90
2018-10-21T08:41:36.722Z,20.97
2018-10-21T08:44:06.592Z,23.13
2018-10-21T08:46:36.345Z,19.27
2018-10-21T08:49:06.414Z,24.43
2018-10-21T08:51:36.137Z,23.57
2018-10-21T08:54:06.460Z,21.60
2018-10-21T08:56:36.305Z,22.13
2018-10-21T08:59:06.297Z,18.67
2018-10-21T09:01:36.141Z,20.13
2018-10-21T09:04:06.129Z,19.93
2018-10-21T09:06:35.889Z,23.33
2018-10-21T09:09:08.213Z,16.83
2018-10-21T09:11:38.104Z,16.13
2018-10-21T09:14:07.849Z,16.73
2018-10-21T09:16:37.833Z,16.50
2018-10-21T09:19:07.612Z,15.40
2018-10-21T09:21:37.258Z,14.47
2018-10-21T09:24:07.198Z,14.63
2018-10-21T09:26:37.695Z,15.00
2018-10-21T09:29:07.678Z,11.80
2018-10-21T09:31:37.418Z,10.50
2018-10-21T09:34:07.366Z,13.20
2018-10-21T09:36:37.325Z,12.37
2018-10-21T09:39:10.541Z,11.13
2018-10-21T09:41:40.323Z,12.73
2018-10-21T09:44:10.705Z,10.60
2018-10-21T09:46:41.418Z,12.03
2018-10-21T09:49:12.058Z,11.70
2018-10-21T09:51:41.750Z,10.87
2018-10-21T09:54:11.575Z,10.17
2018-10-21T09:56:41.418Z,10.00
2018-10-21T09:59:11.249Z,10.30
2018-10-21T10:01:46.272Z,9.80
2018-10-21T10:04:16.189Z,8.10
2018-10-21T10:06:46.093Z,9.07
2018-10-21T10:09:15.913Z,8.73
2018-10-21T10:11:45.642Z,8.37
2018-10-21T10:14:15.406Z,7.13
2018-10-21T10:16:45.185Z,7.60
2018-10-21T10:19:14.984Z,8.47
2018-10-21T10:21:44.714Z,9.83
2018-10-21T10:24:14.501Z,7.20
2018-10-21T10:26:44.261Z,8.10
2018-10-21T10:29:14.047Z,7.23
2018-10-21T10:31:43.770Z,6.87
2018-10-21T10:34:13.729Z,8.50
2018-10-21T10:36:43.385Z,7.63
2018-10-21T10:39:13.156Z,9.93
2018-10-21T10:41:42.934Z,6.23
2018-10-21T10:44:12.629Z,4.50
2018-10-21T10:46:42.434Z,5.23
2018-10-21T10:49:12.285Z,5.43
2018-10-21T10:51:42.014Z,6.73
2018-10-21T10:54:11.735Z,4.13
2018-10-21T10:56:41.444Z,4.50
2018-10-21T10:59:11.243Z,4.30
2018-10-21T11:01:41.011Z,4.20
2018-10-21T11:04:10.826Z,3.10
2018-10-21T11:06:40.533Z,4.70
2018-10-21T11:09:11.126Z,3.77
2018-10-21T11:11:41.048Z,3.43
2018-10-21T11:14:10.814Z,1.70
2018-10-21T11:16:40.616Z,3.80
2018-10-21T11:19:10.353Z,1.97
2018-10-21T11:21:40.086Z,2.40
2018-10-21T11:24:09.822Z,3.20
2018-10-21T11:26:39.548Z,3.00
2018-10-21T11:29:09.414Z,4.10
2018-10-21T11:31:39.184Z,4.20
2018-10-21T11:34:08.979Z,5.63
2018-10-21T11:36:38.695Z,4.70
2018-10-21T11:39:09.210Z,7.50
2018-10-21T11:41:38.984Z,6.43
2018-10-21T11:44:08.757Z,4.77
2018-10-21T11:46:38.472Z,3.63
2018-10-21T11:49:08.220Z,4.37
2018-10-21T11:51:37.928Z,4.53
2018-10-21T11:54:07.689Z,2.83
2018-10-21T11:56:38.486Z,3.83
2018-10-21T11:59:09.235Z,3.23
2018-10-21T12:01:38.932Z,3.37
2018-10-21T12:04:08.695Z,2.77
2018-10-21T12:06:38.433Z,2.77
2018-10-21T12:09:11.005Z,5.30
2018-10-21T12:11:40.773Z,3.33
2018-10-21T12:14:11.302Z,2.77
2018-10-21T12:16:41.171Z,3.00
2018-10-21T12:19:11.058Z,4.97
2018-10-21T12:21:40.756Z,3.80
2018-10-21T12:24:10.501Z,2.20
2018-10-21T12:26:40.353Z,2.00
2018-10-21T12:29:10.084Z,6.47
2018-10-21T12:31:39.806Z,3.10
2018-10-21T12:34:09.677Z,3.00
2018-10-21T12:36:39.531Z,3.80
2018-10-21T12:39:10.335Z,2.63
2018-10-21T12:41:40.801Z,2.07
2018-10-21T12:44:10.676Z,3.10
2018-10-21T12:46:40.468Z,3.20
2018-10-21T12:49:10.426Z,2.83
2018-10-21T12:51:40.095Z,2.13
2018-10-21T12:54:10.045Z,2.40
2018-10-21T12:56:39.862Z,3.50
2018-10-21T12:59:09.884Z,5.20
2018-10-21T13:01:39.646Z,3.47
2018-10-21T13:04:09.444Z,2.37
2018-10-21T13:06:39.194Z,3.67
2018-10-21T13:09:09.690Z,2.23
2018-10-21T13:11:39.485Z,3.70
2018-10-21T13:14:09.475Z,2.80
2018-10-21T13:16:39.201Z,3.10
2018-10-21T13:19:08.997Z,2.80
2018-10-21T13:21:38.783Z,3.20
2018-10-21T13:24:08.530Z,3.60
2018-10-21T13:26:38.308Z,2.03
2018-10-21T13:29:08.077Z,3.57
2018-10-21T13:31:37.817Z,2.00
2018-10-21T13:34:07.632Z,4.53
2018-10-21T13:36:37.263Z,3.20
2018-10-21T13:39:12.099Z,2.50
2018-10-21T13:41:42.522Z,2.60
2018-10-21T13:44:12.333Z,2.60
2018-10-21T13:46:42.789Z,2.70
2018-10-21T13:49:12.716Z,3.13
2018-10-21T13:51:42.555Z,2.93
2018-10-21T13:54:12.486Z,5.03
2018-10-21T13:56:42.221Z,7.20
2018-10-21T13:59:12.066Z,4.37
2018-10-21T14:01:41.865Z,4.20
2018-10-21T14:04:11.734Z,4.03
2018-10-21T14:06:41.504Z,2.97
2018-10-21T14:09:13.015Z,14.83
2018-10-21T14:11:42.779Z,2.90
2018-10-21T14:14:12.751Z,3.00
2018-10-21T14:16:42.658Z,2.50
2018-10-21T14:19:13.220Z,2.87
2018-10-21T14:21:43.384Z,3.37
2018-10-21T14:24:13.185Z,3.70
2018-10-21T14:26:43.098Z,4.40
2018-10-21T14:29:12.763Z,3.27
2018-10-21T14:31:42.514Z,3.87
2018-10-21T14:34:12.575Z,2.90
2018-10-21T14:36:42.606Z,3.20
2018-10-21T14:39:13.384Z,2.60
2018-10-21T14:41:43.004Z,3.30
2018-10-21T14:44:12.742Z,4.00
2018-10-21T14:46:42.575Z,3.67
2018-10-21T14:49:12.433Z,3.13
2018-10-21T14:51:42.563Z,4.97
2018-10-21T14:54:12.457Z,3.00
2018-10-21T14:56:42.123Z,6.37
2018-10-21T14:59:11.853Z,3.90
2018-10-21T15:01:41.756Z,3.33
2018-10-21T15:04:11.545Z,3.53
2018-10-21T15:06:41.254Z,3.50
2018-10-21T15:09:12.915Z,3.17
2018-10-21T15:11:42.979Z,4.30
2018-10-21T15:14:13.022Z,4.37
2018-10-21T15:16:42.605Z,4.23
2018-10-21T15:19:12.339Z,3.30
2018-10-21T15:21:42.221Z,4.20
2018-10-21T15:24:12.100Z,4.63
2018-10-21T15:26:44.876Z,3.70
2018-10-21T15:29:14.690Z,6.03
2018-10-21T15:31:44.533Z,3.27
2018-10-21T15:34:14.564Z,4.00
2018-10-21T15:36:44.243Z,4.63
2018-10-21T15:39:14.109Z,3.67
2018-10-21T15:41:43.982Z,4.27
2018-10-21T15:44:13.796Z,3.60
2018-10-21T15:46:43.537Z,3.30
2018-10-21T15:49:13.691Z,3.73
2018-10-21T15:51:43.455Z,6.00
2018-10-21T15:54:13.348Z,4.50
2018-10-21T15:56:43.335Z,5.50
2018-10-21T15:59:13.039Z,3.83
2018-10-21T16:01:42.933Z,4.50
2018-10-21T16:04:12.685Z,4.97
2018-10-21T16:06:42.555Z,3.40
2018-10-21T16:09:13.288Z,3.83
2018-10-21T16:11:43.038Z,2.97
2018-10-21T16:14:13.047Z,2.50
2018-10-21T16:16:42.789Z,5.47
2018-10-21T16:19:12.532Z,4.00
2018-10-21T16:21:42.524Z,3.50
2018-10-21T16:24:12.274Z,7.27
2018-10-21T16:26:42.031Z,5.30
2018-10-21T16:29:11.914Z,4.70
2018-10-21T16:31:41.807Z,3.80
2018-10-21T16:34:11.652Z,4.83
2018-10-21T16:36:41.430Z,4.23
2018-10-21T16:39:11.731Z,5.90
2018-10-21T16:41:41.388Z,6.03
2018-10-21T16:44:11.264Z,5.80
2018-10-21T16:46:41.131Z,6.90
2018-10-21T16:49:10.960Z,5.53
2018-10-21T16:51:40.938Z,5.40
2018-10-21T16:54:10.808Z,3.70
2018-10-21T16:56:40.460Z,4.13
2018-10-21T16:59:10.367Z,6.20
2018-10-21T17:01:40.299Z,5.87
2018-10-21T17:04:10.094Z,4.80
2018-10-21T17:06:39.948Z,5.77
2018-10-21T17:09:12.194Z,5.40
2018-10-21T17:11:42.456Z,6.07
2018-10-21T17:14:12.331Z,7.20
2018-10-21T17:16:42.173Z,10.00
2018-10-21T17:19:12.006Z,7.53
2018-10-21T17:21:41.667Z,9.13
2018-10-21T17:24:11.556Z,8.77
2018-10-21T17:26:41.412Z,11.00
2018-10-21T17:29:11.195Z,15.93
2018-10-21T17:31:41.012Z,10.90
2018-10-21T17:34:10.802Z,11.43
2018-10-21T17:36:40.566Z,17.50
2018-10-21T17:39:13.126Z,11.97
2018-10-21T17:41:43.286Z,10.53
2018-10-21T17:44:13.396Z,8.33
2018-10-21T17:46:43.430Z,7.40
2018-10-21T17:49:13.274Z,7.23
2018-10-21T17:51:43.080Z,9.67
2018-10-21T17:54:12.858Z,8.90
2018-10-21T17:56:48.138Z,9.07
2018-10-21T17:59:17.947Z,10.67
2018-10-21T18:01:47.733Z,8.63
2018-10-21T18:04:17.531Z,8.27
2018-10-21T18:06:47.361Z,7.97
2018-10-21T18:09:18.172Z,8.80
2018-10-21T18:11:47.950Z,8.73
2018-10-21T18:14:17.819Z,10.57
2018-10-21T18:16:47.570Z,7.67
2018-10-21T18:19:17.372Z,8.07
2018-10-21T18:21:47.337Z,9.37
2018-10-21T18:24:18.035Z,12.80
2018-10-21T18:26:47.771Z,14.20
2018-10-21T18:29:17.978Z,14.30
2018-10-21T18:31:47.770Z,13.63
2018-10-21T18:34:17.604Z,14.40
2018-10-21T18:36:47.270Z,10.50
2018-10-21T18:39:18.054Z,11.73
2018-10-21T18:41:47.932Z,8.90
2018-10-21T18:44:17.658Z,12.98
2018-10-21T18:46:47.425Z,9.10
2018-10-21T18:49:17.295Z,7.40
2018-10-21T18:51:46.950Z,7.83
2018-10-21T18:54:16.696Z,10.30
2018-10-21T18:56:46.537Z,10.65
2018-10-21T18:59:16.526Z,10.93
2018-10-21T19:01:46.573Z,11.68
2018-10-21T19:04:16.571Z,13.43
2018-10-21T19:06:46.411Z,13.43
2018-10-21T19:09:16.219Z,16.07
2018-10-21T19:11:45.977Z,12.47
2018-10-21T19:14:15.892Z,10.13
2018-10-21T19:16:45.722Z,6.83
2018-10-21T19:19:15.567Z,10.20
2018-10-21T19:21:45.344Z,9.95
2018-10-21T19:24:15.166Z,12.50
2018-10-21T19:26:44.954Z,8.90
2018-10-21T19:29:14.849Z,12.50
2018-10-21T19:31:44.610Z,13.30
2018-10-21T19:34:14.566Z,10.68
2018-10-21T19:36:44.555Z,18.35
2018-10-21T19:39:14.493Z,9.93
2018-10-21T19:41:44.366Z,8.58
2018-10-21T19:44:14.286Z,7.83
2018-10-21T19:46:44.241Z,6.80
2018-10-21T19:49:14.123Z,7.72
2018-10-21T19:51:43.973Z,6.58
2018-10-21T19:54:13.728Z,8.75
2018-10-21T19:56:43.643Z,7.37
2018-10-21T19:59:13.402Z,7.95
2018-10-21T20:01:43.344Z,7.58
2018-10-21T20:04:13.304Z,7.47
2018-10-21T20:06:43.084Z,6.87
2018-10-21T20:09:12.848Z,6.15
2018-10-21T20:11:42.634Z,6.33
2018-10-21T20:14:12.494Z,6.92
2018-10-21T20:16:42.247Z,5.75
2018-10-21T20:19:12.116Z,7.65
2018-10-21T20:21:41.847Z,7.37
2018-10-21T20:24:11.692Z,8.63
2018-10-21T20:26:41.628Z,6.47
2018-10-21T20:29:11.420Z,8.18
2018-10-21T20:31:41.228Z,8.13
2018-10-21T20:34:11.076Z,7.17
2018-10-21T20:36:40.866Z,6.40
2018-10-21T20:39:11.103Z,7.05
2018-10-21T20:41:40.864Z,6.43
2018-10-21T20:44:10.674Z,7.42
2018-10-21T20:46:40.455Z,7.05
2018-10-21T20:49:10.277Z,6.60
2018-10-21T20:51:40.225Z,8.13
2018-10-21T20:54:10.229Z,7.15
2018-10-21T20:56:40.051Z,7.63
2018-10-21T20:59:09.751Z,8.73
2018-10-21T21:01:39.497Z,7.58
2018-10-21T21:04:09.684Z,6.97
2018-10-21T21:06:39.467Z,7.87
2018-10-21T21:09:09.543Z,7.97
2018-10-21T21:11:39.281Z,7.72
2018-10-21T21:14:09.079Z,8.98
2018-10-21T21:16:39.031Z,12.25
2018-10-21T21:19:08.741Z,7.53
2018-10-21T21:21:38.707Z,8.63
2018-10-21T21:24:08.486Z,10.72
2018-10-21T21:26:38.280Z,7.57
2018-10-21T21:29:08.160Z,9.95
2018-10-21T21:31:38.139Z,10.10
2018-10-21T21:34:08.104Z,8.80
2018-10-21T21:36:38.038Z,8.55
2018-10-21T21:39:10.414Z,10.18
2018-10-21T21:41:40.894Z,9.13
2018-10-21T21:44:10.676Z,7.53
2018-10-21T21:46:41.424Z,9.80
2018-10-21T21:49:12.167Z,9.55
2018-10-21T21:51:41.886Z,8.75
2018-10-21T21:54:13.061Z,9.08
2018-10-21T21:56:44.782Z,7.25
2018-10-21T21:59:14.505Z,11.22
2018-10-21T22:01:44.231Z,9.90
2018-10-21T22:04:14.000Z,9.25
2018-10-21T22:06:43.723Z,7.92
2018-10-21T22:09:13.820Z,8.33
2018-10-21T22:11:43.601Z,6.65
2018-10-21T22:14:13.360Z,7.47
2018-10-21T22:16:43.205Z,7.50
2018-10-21T22:19:12.915Z,7.53
2018-10-21T22:21:42.807Z,7.37
2018-10-21T22:24:12.590Z,9.05
2018-10-21T22:26:42.374Z,7.45
2018-10-21T22:29:12.062Z,10.25
2018-10-21T22:31:41.840Z,10.35
2018-10-21T22:34:11.697Z,8.30
2018-10-21T22:36:41.284Z,9.10
2018-10-21T22:39:11.161Z,10.55
2018-10-21T22:41:40.833Z,8.10
2018-10-21T22:44:10.559Z,8.93
2018-10-21T22:46:40.594Z,9.60
2018-10-21T22:49:10.244Z,8.75
2018-10-21T22:51:39.966Z,6.95
2018-10-21T22:54:09.725Z,8.63
2018-10-21T22:56:39.437Z,7.40
2018-10-21T22:59:09.126Z,7.85
2018-10-21T23:01:38.834Z,8.65
2018-10-21T23:04:08.666Z,8.73
2018-10-21T23:06:38.412Z,7.28
2018-10-21T23:09:09.497Z,9.18
2018-10-21T23:11:39.459Z,9.35
2018-10-21T23:14:09.172Z,7.35
2018-10-21T23:16:38.962Z,6.25
2018-10-21T23:19:20.211Z,6.55
2018-10-21T23:21:49.933Z,9.58
2018-10-21T23:24:19.676Z,6.47
2018-10-21T23:26:49.333Z,7.85
2018-10-21T23:29:18.994Z,8.33
2018-10-21T23:31:48.722Z,7.50
2018-10-21T23:34:18.498Z,9.70
2018-10-21T23:36:48.148Z,7.30
2018-10-21T23:39:18.685Z,6.55
2018-10-21T23:41:48.434Z,6.03
2018-10-21T23:44:18.165Z,6.55
2018-10-21T23:46:48.130Z,8.25
2018-10-21T23:49:17.791Z,6.58
2018-10-21T23:51:47.682Z,7.95
2018-10-21T23:54:18.329Z,6.78
2018-10-21T23:56:48.007Z,6.70
2018-10-21T23:59:17.709Z,6.70
